McComb, MS

4:57 AM CDT on May 26, 2015 (GMT -0500)
UNION CHURCH ROAD 1 MILE E OF MAGNOLIA | | Change Station
CLOSE
Current Station
Personal Weather Station
Location: Magnolia, MS
Elevation: 397 ft
Nearby Weather Stations

Elev 397 ft 31.15 °N, 90.44 °W | Updated 6 minutes ago

Rain
Rain
60.2 °F
Feels Like 60.2 °F
N
1.7
Wind Variable Wind from NW

Today
High -- | Low -- °F
--% Chance of Precip.
Yesterday
High -- | Low -- °F
Precip. -- in
6:00 AM 7:57 PM
First Quarter, 56% visible
Pressure 30.12 in
Visibility 7.0 miles
Clouds Scattered Clouds 7000 ft
Overcast 10000 ft
Dew Point 58 °F
Humidity 93%
Rainfall 1.01 in
Snow Depth Not available.
UV 0 out of 12
Pollen .60 out of 12
Air Quality Not available.
Flu Activity No Activity
SPECI KMCB 260912Z AUTO 30006KT 7SM -RA SCT070 OVC100 17/17 A3012 RMK AO2 LTG DSNT NE-S TSE06 P0002 T01720167

More Conditions Fewer Conditions

Pressure 30.12 in
Visibility 7.0 miles
Clouds Scattered Clouds 7000 ft
Overcast 10000 ft
Dew Point 58 °F
Humidity 93%
Rainfall 1.01 in
Snow Depth Not available.
UV 0 out of 12
Pollen .60 out of 12
Air Quality Not available.
Flu Activity No Activity
SPECI KMCB 260912Z AUTO 30006KT 7SM -RA SCT070 OVC100 17/17 A3012 RMK AO2 LTG DSNT NE-S TSE06 P0002 T01720167

More Conditions Fewer Conditions

10-Day Weather Forecast

Almanac

Astronomy

May. 26, 2015 Rise Set
Actual Time
Civil Twilight
Nautical Twilight
Astronomical Twilight
Moon
Length of Visible Light
Length of Day
Tomorrow will be .
, % of the Moon is Illuminated

Today's Extremes

State Highs State Lows

Community

WunderPhotos

Upload Photos

1,824,302 photos uploaded!

WunderBlogs® & News

Nearby

Air Quality

  Air Quality AQ Index Pollutant
Not available.

Snow Depth

Station Depth Elevation

Earthquake Activity

City Distance Mag. Time & Date
Minimum magnitude displayed is 2.5.

Coastal Water Temperatures

Place Temperature

Stations

Nearby Weather Stations

Station Location Temp. Windchill Dew Point Humidity Wind Precip. Elev Updated Type